Deva — A8OK3 — position and weather

sailwx.info

Track history (hours):
 
Tides and Currents Weather Stations Pressure Air Temp Water Temp Dewpoint Dewpoint Depression Visibility Wind Speed Wind Dir Waves Ship Positions

Deva

Last reported at 2014-Dec-20 21:17 UTC. Time now 2014-Dec-22 12:43 UTC.
Position N 34°09' E 032°44'.

Length 259 m; draft 10.3 m.

Type: Ship (hazmat cat A). MMSI: 636013644.

Date/timePositionNaut miles runAvg speedWind from/ knotsBaromVisibWave heightAir tempDewpointWater temp
2014-Dec-20 21:17N 34°09' E 032°44'912.6
2014-Dec-20 20:34N 34°16' E 032°51'1312.6
2014-Dec-20 19:34N 34°26' E 032°60'1111.2
2014-Dec-20 18:34N 34°37' E 033°05'4 3.5
2014-Dec-20 17:32N 34°39' E 033°01'0 0.0
2014-Dec-20 16:32N 34°39' E 033°01'0 0.0
2014-Dec-20 15:32N 34°39' E 033°01'0 0.0
2014-Dec-20 14:32N 34°39' E 033°01'0 0.0
2014-Dec-20 13:32N 34°39' E 033°01'0 0.0
2014-Dec-20 12:32N 34°39' E 033°01'0 0.0
2014-Dec-20 11:32N 34°39' E 033°01'0 0.0
2014-Dec-20 10:31N 34°39' E 033°01'0 0.0
2014-Dec-20 09:31N 34°39' E 033°01'0 0.0
2014-Dec-20 08:31N 34°39' E 033°01'0 0.0
2014-Dec-20 07:31N 34°39' E 033°01'0 0.0
2014-Dec-20 06:31N 34°39' E 033°01'1 1.4
2014-Dec-20 05:33N 34°39' E 033°02'1 1.2
2014-Dec-20 04:33N 34°39' E 033°04'2 1.7
2014-Dec-20 03:33N 34°40' E 033°05'0 0.0
2014-Dec-20 02:33N 34°40' E 033°05'0 0.0
2014-Dec-20 01:33N 34°40' E 033°05'0 0.0
2014-Dec-20 00:33N 34°40' E 033°05'0 0.0
2014-Dec-19 23:33N 34°40' E 033°05'0 0.0
2014-Dec-19 22:33N 34°40' E 033°05'0 0.0
2014-Dec-19 21:33N 34°40' E 033°05'0 0.0
2014-Dec-19 20:33N 34°40' E 033°05'0 0.0
2014-Dec-19 19:33N 34°40' E 033°05'0 0.1
2014-Dec-19 18:33N 34°40' E 033°05'0 0.1
2014-Dec-19 17:33N 34°40' E 033°05'0 0.0
2014-Dec-19 16:33N 34°40' E 033°05'0 0.0
2014-Dec-19 15:33N 34°40' E 033°05'0 0.0
2014-Dec-19 14:33N 34°40' E 033°05'0 0.1
2014-Dec-19 13:33N 34°40' E 033°05'0 0.0
2014-Dec-19 12:33N 34°40' E 033°05'0 0.0
2014-Dec-19 11:33N 34°40' E 033°05'4 4.3
2014-Dec-19 10:33N 34°36' E 033°06'1312.8
2014-Dec-19 09:33N 34°25' E 033°14'11 5.3
2014-Dec-19 07:29N 34°16' E 033°21'5 5.5
2014-Dec-19 06:31N 34°11' E 033°21'9611.7
2014-Dec-18 22:19N 32°57' E 034°34'912.3
2014-Dec-18 21:33N 32°55' E 034°45'10 0.5
2014-Dec-18 02:33N 32°53' E 034°56'1313.4
2014-Dec-18 01:32N 32°56' E 034°41'1917.2
2014-Dec-18 00:25N 32°59' E 034°18'46318.4
2014-Dec-16 23:17N 34°28' E 025°12'7318.3
2014-Dec-16 19:17N 34°44' E 023°45'  
2014-Dec-12 18:33N 35°58' W 005°18'22015.6
2014-Dec-12 04:30N 37°08' W 009°38'1916.8
2014-Dec-12 03:23N 37°26' W 009°43'1516.6
2014-Dec-12 02:30N 37°40' W 009°48'1616.8
2014-Dec-12 01:33N 37°56' W 009°53'1717.0
2014-Dec-12 00:32N 38°12' W 009°58'1616.7
2014-Dec-11 23:33N 38°28' W 010°03'1616.1
2014-Dec-11 22:33N 38°44' W 010°07'1716.9
2014-Dec-11 21:33N 39°01' W 010°06'  
Track history (hours):
 
Tides and Currents Weather Stations Pressure Air Temp Water Temp Dewpoint Dewpoint Depression Visibility Wind Speed Wind Dir Waves Ship Positions

Deva

Last reported at 2014-Dec-20 21:17 UTC. Time now 2014-Dec-22 12:43 UTC.
Position N 34°09' E 032°44'.

Length 259 m; draft 10.3 m.

Type: Ship (hazmat cat A). MMSI: 636013644.

Date/timePositionNaut miles runAvg speedWind from/ knotsBaromVisibWave heightAir tempDewpointWater temp
2014-Dec-20 21:17N 34°09' E 032°44'912.6
2014-Dec-20 20:34N 34°16' E 032°51'1312.6
2014-Dec-20 19:34N 34°26' E 032°60'1111.2
2014-Dec-20 18:34N 34°37' E 033°05'4 3.5
2014-Dec-20 17:32N 34°39' E 033°01'0 0.0
2014-Dec-20 16:32N 34°39' E 033°01'0 0.0
2014-Dec-20 15:32N 34°39' E 033°01'0 0.0
2014-Dec-20 14:32N 34°39' E 033°01'0 0.0
2014-Dec-20 13:32N 34°39' E 033°01'0 0.0
2014-Dec-20 12:32N 34°39' E 033°01'0 0.0
2014-Dec-20 11:32N 34°39' E 033°01'0 0.0
2014-Dec-20 10:31N 34°39' E 033°01'0 0.0
2014-Dec-20 09:31N 34°39' E 033°01'0 0.0
2014-Dec-20 08:31N 34°39' E 033°01'0 0.0
2014-Dec-20 07:31N 34°39' E 033°01'0 0.0
2014-Dec-20 06:31N 34°39' E 033°01'1 1.4
2014-Dec-20 05:33N 34°39' E 033°02'1 1.2
2014-Dec-20 04:33N 34°39' E 033°04'2 1.7
2014-Dec-20 03:33N 34°40' E 033°05'0 0.0
2014-Dec-20 02:33N 34°40' E 033°05'0 0.0
2014-Dec-20 01:33N 34°40' E 033°05'0 0.0
2014-Dec-20 00:33N 34°40' E 033°05'0 0.0
2014-Dec-19 23:33N 34°40' E 033°05'0 0.0
2014-Dec-19 22:33N 34°40' E 033°05'0 0.0
2014-Dec-19 21:33N 34°40' E 033°05'0 0.0
2014-Dec-19 20:33N 34°40' E 033°05'0 0.0
2014-Dec-19 19:33N 34°40' E 033°05'0 0.1
2014-Dec-19 18:33N 34°40' E 033°05'0 0.1
2014-Dec-19 17:33N 34°40' E 033°05'0 0.0
2014-Dec-19 16:33N 34°40' E 033°05'0 0.0
2014-Dec-19 15:33N 34°40' E 033°05'0 0.0
2014-Dec-19 14:33N 34°40' E 033°05'0 0.1
2014-Dec-19 13:33N 34°40' E 033°05'0 0.0
2014-Dec-19 12:33N 34°40' E 033°05'0 0.0
2014-Dec-19 11:33N 34°40' E 033°05'4 4.3
2014-Dec-19 10:33N 34°36' E 033°06'1312.8
2014-Dec-19 09:33N 34°25' E 033°14'11 5.3
2014-Dec-19 07:29N 34°16' E 033°21'5 5.5
2014-Dec-19 06:31N 34°11' E 033°21'9611.7
2014-Dec-18 22:19N 32°57' E 034°34'912.3
2014-Dec-18 21:33N 32°55' E 034°45'10 0.5
2014-Dec-18 02:33N 32°53' E 034°56'1313.4
2014-Dec-18 01:32N 32°56' E 034°41'1917.2
2014-Dec-18 00:25N 32°59' E 034°18'46318.4
2014-Dec-16 23:17N 34°28' E 025°12'7318.3
2014-Dec-16 19:17N 34°44' E 023°45'  
2014-Dec-12 18:33N 35°58' W 005°18'22015.6
2014-Dec-12 04:30N 37°08' W 009°38'1916.8
2014-Dec-12 03:23N 37°26' W 009°43'1516.6
2014-Dec-12 02:30N 37°40' W 009°48'1616.8
2014-Dec-12 01:33N 37°56' W 009°53'1717.0
2014-Dec-12 00:32N 38°12' W 009°58'1616.7
2014-Dec-11 23:33N 38°28' W 010°03'1616.1
2014-Dec-11 22:33N 38°44' W 010°07'1716.9
2014-Dec-11 21:33N 39°01' W 010°06'  

Dump ship's entire track history